createdAt,value
2022-09-07T00:07:31.934Z,34.5347
2022-09-07T00:22:33.958Z,33.7646
2022-09-07T00:37:35.908Z,33.9138
2022-09-07T00:52:37.783Z,32.6497
2022-09-07T01:07:39.877Z,32.8998
2022-09-07T01:22:41.861Z,34.0277
2022-09-07T01:37:43.786Z,33.5826
2022-09-07T01:52:45.703Z,34.5248
2022-09-07T02:07:47.666Z,33.1146
2022-09-07T02:22:49.637Z,31.5478
2022-09-07T02:37:51.567Z,26.77
2022-09-07T02:52:53.488Z,29.5229
2022-09-07T03:07:55.424Z,27.2931
2022-09-07T03:22:57.353Z,28.733
2022-09-07T03:37:59.252Z,26.2692
2022-09-07T03:53:01.276Z,30.215
2022-09-07T04:08:03.166Z,29.9123
2022-09-07T04:23:05.128Z,30.8613
2022-09-07T04:38:07.071Z,30.9139
2022-09-07T04:53:09.012Z,31.32
2022-09-07T05:08:10.894Z,31.6611
2022-09-07T05:23:12.816Z,30.358
2022-09-07T05:38:14.747Z,29.6139
2022-09-07T05:53:16.675Z,30.7771
2022-09-07T06:08:18.615Z,30.592
2022-09-07T06:23:20.551Z,30.4651
2022-09-07T06:38:22.438Z,30.3543
2022-09-07T06:53:35.835Z,29.9513
2022-09-07T07:08:38.165Z,30.4973
2022-09-07T07:23:40.164Z,30.6273
2022-09-07T07:53:59.941Z,29.3205
2022-09-07T08:09:02.170Z,29.0735
2022-09-07T08:24:04.119Z,28.5405
2022-09-07T08:39:06.049Z,27.5197
2022-09-07T08:54:07.973Z,26.7917
2022-09-07T09:09:09.914Z,25.8786
2022-09-07T09:24:11.845Z,26.1968
2022-09-07T09:39:13.756Z,26.4048
2022-09-07T09:54:15.663Z,25.7189
2022-09-07T10:09:17.561Z,25.7641
2022-09-07T10:24:19.607Z,25.176
2022-09-07T10:39:21.637Z,24.7699
2022-09-07T10:54:31.415Z,25.0231
2022-09-07T11:09:33.694Z,24.0611
2022-09-07T11:24:35.640Z,24.357
2022-09-07T11:39:37.776Z,24.3991
2022-09-07T11:54:39.775Z,24.6195
2022-09-07T12:09:41.772Z,24.2592
2022-09-07T12:24:43.661Z,23.7943
2022-09-07T12:39:45.677Z,24.0834
2022-09-07T12:54:59.651Z,23.9794
2022-09-07T13:10:12.257Z,23.6934
2022-09-07T13:25:14.240Z,19.6052
2022-09-07T13:40:16.256Z,23.3065
2022-09-07T13:55:19.977Z,23.3944
2022-09-07T14:10:24.739Z,23.3876
2022-09-07T14:25:26.948Z,22.6534
2022-09-07T14:40:30.055Z,22.2374
2022-09-07T14:55:32.044Z,22.8026
2022-09-07T15:10:34.041Z,23.8358
2022-09-07T15:25:36.015Z,23.0304
2022-09-07T15:40:37.938Z,23.2087
2022-09-07T15:55:39.885Z,23.2644
2022-09-07T16:10:41.812Z,23.0267
2022-09-07T16:25:43.701Z,23.0954
2022-09-07T16:40:45.688Z,23.0533
2022-09-07T16:55:47.721Z,22.8843
2022-09-07T17:10:49.629Z,22.9883
2022-09-07T17:25:51.561Z,23.2972
2022-09-07T17:40:54.874Z,23.8494
2022-09-07T17:55:56.910Z,23.8104
2022-09-07T18:26:30.788Z,25.6205
2022-09-07T18:41:32.708Z,25.6694
2022-09-07T18:56:34.616Z,26.1083
2022-09-07T19:11:36.589Z,26.3584
2022-09-07T19:26:38.511Z,26.5051
2022-09-07T19:41:40.441Z,26.1894
2022-09-07T19:56:42.391Z,26.4921
2022-09-07T20:11:46.762Z,27.2393
2022-09-07T20:26:48.970Z,25.0231
2022-09-07T20:41:50.931Z,28.4192
2022-09-07T20:56:52.847Z,28.79
2022-09-07T21:11:57.033Z,28.92
2022-09-07T21:26:59.222Z,28.6699
2022-09-07T21:42:01.163Z,29.2679
2022-09-07T21:57:03.199Z,29.5799
2022-09-07T22:12:05.203Z,30.0417
2022-09-07T22:27:07.152Z,29.1348
2022-09-07T22:42:09.052Z,29.2388
2022-09-07T22:57:10.954Z,30.3927
2022-09-07T23:12:12.915Z,30.7338
2022-09-07T23:27:14.837Z,28.6575
2022-09-07T23:42:16.798Z,30.5363
2022-09-07T23:57:18.689Z,29.3985
